Brierfield, United Kingdom
Current Conditions -  °F | °C
As of 3:20 AM on Saturday 20 Dec 2014 (Local Time) from EGNM Reporting Station
Rain Showers Rain Showers  
Wind Chill: 34°   Ceiling: Unl
Heat Index: 43°   Visibility: 6mi
Dew Point: 37°   Wind: 22mph
Humidity: 81%   Direction: 270°W
Pressure: 29.97"   Gusts: NA
Location:  53.82°N, 2.23°W
Report Text: EGNM 200320Z 27019KT 230V300 9999 -SHRA SCT015 06/03 Q1015
Loading
Personal Weather Stations






























Interactive Weather Map New forecast layout! Learn more

10-Day Weather Forecast

Advertisements
Track Severe Weather on mobile